Have a Safe July 4th! 

Flight Track Log - Related Links

Times and Time Zones

All times are in EDT time to prevent confusion due to time zone crossing. See the DAL1020 flight status page for this flight to view local times or setup timezone preferences in your user account.

Time Position Orientation Groundspeed Altitude Reporting Facility
EDT Latitude Longitude Course Direction KTS MPH feet Rate Location/Type
Tue 06:43:00 PM 61.0186 -149.2114 109° East  Level FlightAware Approximate
Tue 06:44:00 PM 60.9654 -148.9561 113° Southeast  Level FlightAware Approximate
Tue 06:45:00 PM 60.9154 -148.6985 111° Southeast  Level FlightAware Approximate
Tue 06:45:05 PM 61.4000 -149.9500 113° Southeast 300 345 12,900  Level Anchorage Center
Tue 06:46:00 PM 60.8666 -148.4403 111° Southeast  Level FlightAware Approximate
Tue 06:46:06 PM 61.3833 -149.7667 101° East 350 403 14,200  Level Anchorage Center
Tue 06:47:00 PM 60.8168 -148.1833 112° Southeast  Level FlightAware Approximate
Tue 06:47:06 PM 61.3500 -149.5333 106° East 410 472 15,500  Level Anchorage Center
Tue 06:48:00 PM 60.7655 -147.9279 114° Southeast  Level FlightAware Approximate
Tue 06:48:06 PM 61.3167 -149.2833 105° East 440 506 17,100  Level Anchorage Center
Tue 06:49:00 PM 60.7109 -147.6759 114° Southeast  Level FlightAware Approximate
Tue 06:49:07 PM 61.2833 -149.0333 105° East 450 518 18,600  Level Anchorage Center
Tue 06:50:00 PM 60.6566 -147.4240 113° Southeast  Level FlightAware Approximate
Tue 06:50:07 PM 61.2500 -148.7833 105° East 470 541 20,200  Level Anchorage Center
Tue 06:51:07 PM 61.2167 -148.5000 104° East 490 564 21,500 1,450 Climbing Anchorage Center
Tue 06:52:07 PM 61.1667 -148.2333 111° Southeast 500 575 23,100 1,488 Climbing Anchorage Center
Tue 06:53:08 PM 61.1167 -147.9500 110° East 510 587 24,500 1,388 Climbing Anchorage Center
Tue 06:54:08 PM 61.0833 -147.6500 103° East 520 598 25,900 1,550 Climbing Anchorage Center
Tue 06:55:08 PM 61.0333 -147.3667 110° East 510 587 27,600 1,636 Climbing Anchorage Center
Tue 06:56:09 PM 60.9833 -147.0833 110° East 520 598 29,200 1,488 Climbing Anchorage Center
Tue 06:57:09 PM 60.9333 -146.8000 110° East 520 598 30,600 1,350 Climbing Anchorage Center
Tue 06:58:09 PM 60.9000 -146.5167 103° East 510 587 31,900 1,339 Climbing Anchorage Center
Tue 06:59:10 PM 60.8500 -146.2333 110° East 510 587 33,300 1,289 Climbing Anchorage Center
Tue 07:00:10 PM 60.8000 -145.9667 111° Southeast 510 587 34,500 1,200 Climbing Anchorage Center
Tue 07:01:10 PM 60.7500 -145.6833 110° East 500 575 35,700 1,091 Climbing Anchorage Center
Tue 07:02:11 PM 60.7000 -145.4167 111° Southeast 500 575 36,700 645 Climbing Anchorage Center
Tue 07:03:11 PM 60.6500 -145.1500 111° Southeast 500 575 37,000 149 Climbing Anchorage Center
Tue 07:04:12 PM 60.6000 -144.8833 111° Southeast 510 587 37,000  Level Anchorage Center
Tue 07:05:12 PM 60.5500 -144.6167 111° Southeast 500 575 37,000  Level Anchorage Center
Tue 07:06:12 PM 60.5000 -144.3500 111° Southeast 500 575 37,000  Level Anchorage Center
Tue 07:07:13 PM 60.4500 -144.0833 111° Southeast 510 587 37,000  Level Anchorage Center
Tue 07:08:13 PM 60.4000 -143.8167 111° Southeast 510 587 37,000  Level Anchorage Center
Tue 07:09:13 PM 60.3500 -143.5500 111° Southeast 500 575 37,000  Level Anchorage Center
Tue 07:10:13 PM 60.3000 -143.2833 111° Southeast 500 575 37,000  Level Anchorage Center
Tue 07:11:14 PM 60.2500 -143.0167 111° Southeast 510 587 37,000  Level Anchorage Center
Tue 07:12:14 PM 60.2000 -142.7833 113° Southeast 500 575 37,000  Level Anchorage Center
Tue 07:13:14 PM 60.1500 -142.5167 111° Southeast 500 575 37,000  Level Anchorage Center
Tue 07:14:15 PM 60.0833 -142.2667 118° Southeast 500 575 37,000  Level Anchorage Center
Tue 07:15:15 PM 60.0333 -142.0000 110° East 500 575 37,000  Level Anchorage Center
Tue 07:16:15 PM 59.9833 -141.7500 112° Southeast 500 575 37,000  Level Anchorage Center
Tue 07:17:16 PM 59.9167 -141.4833 116° Southeast 500 575 37,000  Level Anchorage Center
Tue 07:18:16 PM 59.8667 -141.2333 112° Southeast 500 575 37,000  Level Anchorage Center
Tue 07:19:16 PM 59.8167 -140.9833 112° Southeast 500 575 37,000  Level Anchorage Center
Tue 07:20:17 PM 59.7500 -140.7333 118° Southeast 500 575 37,000  Level Anchorage Center
Tue 07:21:17 PM 59.7000 -140.4667 110° East 500 575 37,000  Level Anchorage Center
Tue 07:22:18 PM 59.6333 -140.2333 119° Southeast 490 564 37,000  Level Anchorage Center
Tue 07:23:18 PM 59.5833 -139.9833 111° Southeast 490 564 37,000  Level Anchorage Center
Tue 07:24:18 PM 59.5167 -139.7000 115° Southeast 520 598 37,000  Level Anchorage Center
Tue 07:25:19 PM 59.4833 -139.4500 105° East 500 575 37,000  Level Anchorage Center
Tue 07:26:19 PM 59.4500 -139.1667 103° East 490 564 37,000  Level Anchorage Center
Tue 07:27:19 PM 59.4167 -138.9167 105° East 490 564 37,000  Level Anchorage Center
Tue 07:28:19 PM 59.3833 -138.6500 104° East 490 564 37,000  Level Anchorage Center
Tue 07:29:19 PM 59.3500 -138.3833 104° East 490 564 37,000  Level Anchorage Center
Tue 07:30:20 PM 59.3167 -138.1167 104° East 500 575 37,000  Level Anchorage Center
Tue 07:31:20 PM 59.2833 -137.8667 105° East 490 564 37,000  Level Anchorage Center
Tue 07:32:21 PM 59.2667 -137.6000 97° East 490 564 37,000  Level Anchorage Center
Tue 07:33:21 PM 59.2167 -137.3500 111° Southeast 490 564 37,000  Level Anchorage Center
Tue 07:34:21 PM 59.1833 -137.0833 104° East 490 564 37,000  Level Anchorage Center
Tue 07:35:22 PM 59.1500 -136.8333 104° East 490 564 37,000  Level Anchorage Center
Tue 07:36:22 PM 59.1167 -136.5667 104° East 500 575 37,000  Level Anchorage Center
Tue 07:37:22 PM 59.0833 -136.3167 104° East 490 564 37,000  Level Anchorage Center
Tue 07:38:23 PM 59.0500 -136.0667 104° East 490 564 37,000  Level Anchorage Center
Tue 07:39:23 PM 59.0167 -135.8167 104° East 480 552 37,000  Level Anchorage Center
Tue 07:40:23 PM 58.9833 -135.5667 104° East 470 541 37,000  Level Anchorage Center
Tue 07:41:24 PM 58.9500 -135.3167 104° East 480 552 37,000  Level Anchorage Center
Tue 07:42:24 PM 58.9000 -135.0667 111° Southeast 480 552 37,000  Level Anchorage Center
Tue 07:43:24 PM 58.8667 -134.8167 104° East 480 552 37,000  Level Anchorage Center
Tue 07:44:25 PM 58.8333 -134.5833 105° East 480 552 37,000  Level Anchorage Center
Tue 07:45:25 PM 58.8000 -134.3333 104° East 480 552 37,000  Level Anchorage Center
Tue 07:46:25 PM 58.7500 -134.0833 111° Southeast 470 541 37,000  Level Anchorage Center
Tue 07:47:25 PM 58.7167 -133.8333 104° East 490 564 37,000  Level Anchorage Center
Tue 07:48:26 PM 58.6667 -133.6000 112° Southeast 480 552 37,000  Level Anchorage Center
Tue 07:50:00 PM 58.6051 -133.2189 107° East  Level FlightAware Approximate
Tue 07:57:00 PM 58.3165 -131.5326 110° East  Level FlightAware Approximate
Tue 07:58:00 PM 58.2716 -131.2953 110° East  Level FlightAware Approximate
Tue 07:59:00 PM 58.2263 -131.0586 110° East  Level FlightAware Approximate
Tue 08:00:00 PM 58.1805 -130.8225 110° East  Level FlightAware Approximate
Tue 08:01:00 PM 58.1343 -130.5870 110° East  Level FlightAware Approximate
Tue 08:02:00 PM 58.0876 -130.3521 111° Southeast  Level FlightAware Approximate
Tue 08:03:00 PM 58.0406 -130.1179 111° Southeast  Level FlightAware Approximate
Tue 08:04:00 PM 57.9934 -129.8840 111° Southeast  Level FlightAware Approximate
Tue 08:05:00 PM 57.9461 -129.6505 111° Southeast  Level FlightAware Approximate
Tue 08:06:00 PM 57.8985 -129.4176 111° Southeast  Level FlightAware Approximate
Tue 08:07:00 PM 57.8503 -129.1853 111° Southeast  Level FlightAware Approximate
Tue 08:08:00 PM 57.8018 -128.9537 111° Southeast  Level FlightAware Approximate
Tue 08:09:00 PM 57.7529 -128.7226 112° Southeast  Level FlightAware Approximate
Tue 08:10:00 PM 57.7035 -128.4922 112° Southeast  Level FlightAware Approximate
Tue 08:11:00 PM 57.6537 -128.2625 112° Southeast  Level FlightAware Approximate
Tue 08:12:00 PM 57.6035 -128.0333 112° Southeast  Level FlightAware Approximate
Tue 08:13:00 PM 57.5529 -127.8048 112° Southeast  Level FlightAware Approximate
Tue 08:14:00 PM 57.5019 -127.5770 113° Southeast  Level FlightAware Approximate
Tue 08:15:00 PM 57.4504 -127.3497 113° Southeast  Level FlightAware Approximate
Tue 08:16:00 PM 57.3986 -127.1231 113° Southeast  Level FlightAware Approximate
Tue 08:17:00 PM 57.3463 -126.8972 113° Southeast  Level FlightAware Approximate
Tue 08:18:00 PM 57.2937 -126.6719 113° Southeast  Level FlightAware Approximate
Tue 08:19:00 PM 57.2406 -126.4472 113° Southeast  Level FlightAware Approximate
Tue 08:20:00 PM 57.1869 -126.2234 114° Southeast  Level FlightAware Approximate
Tue 08:21:00 PM 57.1328 -126.0003 114° Southeast  Level FlightAware Approximate
Tue 08:22:00 PM 57.0783 -125.7778 114° Southeast  Level FlightAware Approximate
Tue 08:22:45 PM 57.0167 -125.6333 115° Southeast 560 644 37,000  Level Edmonton Center
Tue 08:23:00 PM 57.0234 -125.5559 114° Southeast  Level FlightAware Approximate
Tue 08:23:45 PM 56.9500 -125.4000 118° Southeast 500 575 37,000  Level Edmonton Center
Tue 08:24:00 PM 56.9681 -125.3348 115° Southeast  Level FlightAware Approximate
Tue 08:24:45 PM 56.9000 -125.1667 111° Southeast 490 564 37,000  Level Edmonton Center
Tue 08:25:00 PM 56.9124 -125.1143 115° Southeast  Level FlightAware Approximate
Tue 08:25:45 PM 56.8500 -124.9500 113° Southeast 490 564 37,000  Level Edmonton Center
Tue 08:26:00 PM 56.8567 -124.8941 115° Southeast  Level FlightAware Approximate
Tue 08:26:45 PM 56.7833 -124.7167 117° Southeast 480 552 37,000  Level Edmonton Center
Tue 08:27:00 PM 56.8011 -124.6742 115° Southeast  Level FlightAware Approximate
Tue 08:27:45 PM 56.7333 -124.5000 113° Southeast 480 552 37,000  Level Edmonton Center
Tue 08:28:00 PM 56.7451 -124.4549 115° Southeast  Level FlightAware Approximate
Tue 08:28:45 PM 56.6667 -124.2667 117° Southeast 480 552 37,000  Level Edmonton Center
Tue 08:29:45 PM 56.6167 -124.0500 113° Southeast 480 552 37,000  Level Edmonton Center
Tue 08:30:45 PM 56.5500 -123.8333 119° Southeast 480 552 37,000 150 Level Edmonton Center
Tue 08:31:45 PM 56.5000 -123.6167 113° Southeast 480 552 37,300 650 Climbing Edmonton Center
Tue 08:32:45 PM 56.4333 -123.3833 117° Southeast 480 552 38,300 850 Climbing Edmonton Center
Tue 08:33:45 PM 56.3833 -123.1667 113° Southeast 480 552 39,000 350 Climbing Edmonton Center
Tue 08:34:45 PM 56.3167 -122.9500 119° Southeast 480 552 39,000  Level Edmonton Center
Tue 08:35:45 PM 56.2500 -122.7333 119° Southeast 470 541 39,000  Level Edmonton Center
Tue 08:36:45 PM 56.2000 -122.5167 112° Southeast 470 541 39,000  Level Edmonton Center
Tue 08:37:45 PM 56.1333 -122.3333 123° Southeast 470 541 39,000  Level Edmonton Center
Tue 08:38:45 PM 56.0833 -122.1167 112° Southeast 470 541 39,000  Level Edmonton Center
Tue 08:39:45 PM 56.0167 -121.9000 119° Southeast 470 541 39,000  Level Edmonton Center
Tue 08:40:45 PM 55.9500 -121.6833 119° Southeast 470 541 39,000  Level Edmonton Center
Tue 08:41:45 PM 55.9000 -121.4833 114° Southeast 480 552 39,000  Level Edmonton Center
Tue 08:42:45 PM 55.8333 -121.2667 119° Southeast 480 552 39,000  Level Edmonton Center
Tue 08:43:45 PM 55.7667 -121.0500 119° Southeast 480 552 39,000  Level Edmonton Center
Tue 08:44:45 PM 55.7000 -120.8333 119° Southeast 480 552 39,000  Level Edmonton Center
Tue 08:45:45 PM 55.6333 -120.6167 119° Southeast 490 564 39,000  Level Edmonton Center
Tue 08:46:45 PM 55.5667 -120.4167 120° Southeast 490 564 39,000  Level Edmonton Center
Tue 08:47:45 PM 55.5167 -120.2000 112° Southeast 490 564 39,000  Level Edmonton Center
Tue 08:48:45 PM 55.4333 -120.0000 126° Southeast 490 564 39,000  Level Edmonton Center
Tue 08:49:45 PM 55.3833 -119.7833 112° Southeast 490 564 39,000  Level Edmonton Center
Tue 08:50:45 PM 55.3000 -119.5500 122° Southeast 490 564 39,000  Level Edmonton Center
Tue 08:51:45 PM 55.2500 -119.3333 112° Southeast 490 564 39,000  Level Edmonton Center
Tue 08:52:45 PM 55.1667 -119.1333 126° Southeast 500 575 39,000  Level Edmonton Center
Tue 08:53:45 PM 55.1000 -118.9333 120° Southeast 490 564 39,000  Level Edmonton Center
Tue 08:54:45 PM 55.0167 -118.7167 124° Southeast 490 564 39,000  Level Edmonton Center
Tue 08:55:45 PM 54.9500 -118.5167 120° Southeast 500 575 39,000  Level Edmonton Center
Tue 08:56:45 PM 54.8833 -118.3167 120° Southeast 500 575 39,000  Level Edmonton Center
Tue 08:57:45 PM 54.8000 -118.1000 124° Southeast 500 575 39,000  Level Edmonton Center
Tue 08:58:45 PM 54.7333 -117.9000 120° Southeast 500 575 39,000  Level Edmonton Center
Tue 08:59:45 PM 54.6667 -117.7000 120° Southeast 500 575 39,000  Level Edmonton Center
Tue 09:00:45 PM 54.5833 -117.5000 126° Southeast 500 575 39,000  Level Edmonton Center
Tue 09:01:45 PM 54.5167 -117.3000 120° Southeast 500 575 39,000  Level Edmonton Center
Tue 09:02:45 PM 54.4333 -117.0667 121° Southeast 500 575 39,000  Level Edmonton Center
Tue 09:03:45 PM 54.3500 -116.8833 128° Southeast 510 587 39,000  Level Edmonton Center
Tue 09:04:45 PM 54.2667 -116.6667 123° Southeast 510 587 39,000  Level Edmonton Center
Tue 09:05:45 PM 54.2000 -116.4667 120° Southeast 510 587 39,000  Level Edmonton Center
Tue 09:06:45 PM 54.1167 -116.2667 125° Southeast 510 587 39,000  Level Edmonton Center
Tue 09:07:45 PM 54.0333 -116.0333 121° Southeast 510 587 39,000  Level Edmonton Center
Tue 09:08:45 PM 53.9500 -115.8500 128° Southeast 510 587 39,000  Level Edmonton Center
Tue 09:09:45 PM 53.8667 -115.6500 125° Southeast 510 587 39,000  Level Edmonton Center
Tue 09:10:45 PM 53.7833 -115.4500 125° Southeast 510 587 39,000  Level Edmonton Center
Tue 09:11:45 PM 53.7167 -115.2667 122° Southeast 510 587 39,000  Level Edmonton Center
Tue 09:12:45 PM 53.6333 -115.0333 121° Southeast 510 587 39,000  Level Edmonton Center
Tue 09:13:45 PM 53.5500 -114.8500 127° Southeast 510 587 39,000  Level Edmonton Center
Tue 09:14:45 PM 53.4667 -114.6500 125° Southeast 510 587 39,000  Level Edmonton Center
Tue 09:15:45 PM 53.3833 -114.4333 123° Southeast 520 598 39,000  Level Edmonton Center
Tue 09:16:45 PM 53.3000 -114.2333 125° Southeast 520 598 39,000  Level Edmonton Center
Tue 09:17:45 PM 53.2333 -114.0500 121° Southeast 520 598 39,000  Level Edmonton Center
Tue 09:18:45 PM 53.1333 -113.8333 128° Southeast 520 598 39,000  Level Edmonton Center
Tue 09:19:45 PM 53.1000 -113.6000 103° East 530 610 39,000  Level Edmonton Center
Tue 09:20:45 PM 53.0333 -113.3667 115° Southeast 530 610 39,000  Level Edmonton Center
Tue 09:21:45 PM 52.9833 -113.1500 111° Southeast 530 610 39,000  Level Edmonton Center
Tue 09:22:45 PM 52.9167 -112.8833 112° Southeast 530 610 39,000  Level Edmonton Center
Tue 09:23:45 PM 52.8667 -112.6833 112° Southeast 530 610 39,000  Level Edmonton Center
Tue 09:24:45 PM 52.8167 -112.4500 109° East 540 621 39,000  Level Edmonton Center
Tue 09:25:45 PM 52.7667 -112.2167 109° East 540 621 39,000  Level Edmonton Center
Tue 09:26:45 PM 52.7167 -111.9833 109° East 540 621 39,000  Level Edmonton Center
Tue 09:27:45 PM 52.6333 -111.7333 119° Southeast 540 621 39,000  Level Edmonton Center
Tue 09:28:45 PM 52.5833 -111.5000 109° East 540 621 39,000  Level Edmonton Center
Tue 09:29:45 PM 52.5333 -111.2833 111° Southeast 540 621 39,000  Level Edmonton Center
Tue 09:30:45 PM 52.4833 -111.0500 109° East 540 621 39,000  Level Edmonton Center
Tue 09:31:45 PM 52.4000 -110.8333 122° Southeast 540 621 39,000  Level Edmonton Center
Tue 09:32:45 PM 52.3500 -110.5833 108° East 540 621 39,000  Level Edmonton Center
Tue 09:33:45 PM 52.2833 -110.3833 119° Southeast 540 621 39,000  Level Edmonton Center
Tue 09:34:45 PM 52.2167 -110.1167 112° Southeast 540 621 39,000  Level Edmonton Center
Tue 09:35:45 PM 52.1667 -109.9167 112° Southeast 540 621 39,000  Level Edmonton Center
Tue 09:36:45 PM 52.1000 -109.6667 113° Southeast 540 621 39,000  Level Edmonton Center
Tue 09:37:33 PM 52.0667 -109.5333 112° Southeast 540 621 39,000  Level Winnipeg Center
Tue 09:38:45 PM 51.9833 -109.2500 115° Southeast 530 610 39,000  Level Edmonton Center
Tue 09:39:33 PM 51.9333 -109.0833 116° Southeast 540 621 39,000  Level Winnipeg Center
Tue 09:40:33 PM 51.8667 -108.8833 118° Southeast 540 621 39,000  Level Winnipeg Center
Tue 09:41:33 PM 51.8167 -108.6500 109° East 540 621 39,000  Level Winnipeg Center
Tue 09:42:33 PM 51.7500 -108.4333 116° Southeast 540 621 39,000  Level Winnipeg Center
Tue 09:43:33 PM 51.6833 -108.2000 115° Southeast 540 621 39,000  Level Winnipeg Center
Tue 09:44:33 PM 51.6167 -108.0000 118° Southeast 540 621 39,000  Level Winnipeg Center
Tue 09:45:33 PM 51.5500 -107.7667 115° Southeast 540 621 39,000  Level Winnipeg Center
Tue 09:46:33 PM 51.4833 -107.5500 116° Southeast 550 633 39,000  Level Winnipeg Center
Tue 09:47:33 PM 51.4333 -107.3333 110° East 550 633 39,000  Level Winnipeg Center
Tue 09:48:33 PM 51.3667 -107.1167 116° Southeast 540 621 39,000  Level Winnipeg Center
Tue 09:49:33 PM 51.3000 -106.8833 114° Southeast 540 621 39,000  Level Winnipeg Center
Tue 09:50:33 PM 51.2333 -106.6833 118° Southeast 540 621 39,000  Level Winnipeg Center
Tue 09:51:33 PM 51.1500 -106.4500 120° Southeast 540 621 39,000  Level Winnipeg Center
Tue 09:53:33 PM 51.0333 -106.0500 115° Southeast 540 621 39,000  Level Winnipeg Center
Tue 09:54:33 PM 50.9500 -105.8333 121° Southeast 540 621 39,000  Level Winnipeg Center
Tue 09:55:33 PM 50.9000 -105.6333 112° Southeast 540 621 39,000  Level Winnipeg Center
Tue 09:56:33 PM 50.8167 -105.4000 119° Southeast 540 621 39,000  Level Winnipeg Center
Tue 09:57:33 PM 50.7333 -105.2000 123° Southeast 540 621 39,000  Level Winnipeg Center
Tue 09:58:33 PM 50.6667 -104.9833 116° Southeast 540 621 39,000  Level Winnipeg Center
Tue 09:59:33 PM 50.6000 -104.7833 118° Southeast 530 610 39,000  Level Winnipeg Center
Tue 10:00:33 PM 50.5333 -104.6167 122° Southeast 530 610 39,000  Level Winnipeg Center
Tue 10:01:33 PM 50.4500 -104.3833 119° Southeast 540 621 39,000  Level Winnipeg Center
Tue 10:02:33 PM 50.3500 -104.2167 133° Southeast 530 610 39,000  Level Winnipeg Center
Tue 10:03:33 PM 50.2833 -104.0167 117° Southeast 520 598 39,000  Level Winnipeg Center
Tue 10:04:33 PM 50.2000 -103.8167 123° Southeast 520 598 39,000  Level Winnipeg Center
Tue 10:05:33 PM 50.1167 -103.6500 128° Southeast 520 598 39,000  Level Winnipeg Center
Tue 10:06:33 PM 50.0333 -103.4500 123° Southeast 520 598 39,000  Level Winnipeg Center
Tue 10:07:33 PM 49.9333 -103.2667 130° Southeast 520 598 39,000  Level Winnipeg Center
Tue 10:08:33 PM 49.8667 -103.0667 117° Southeast 520 598 39,000  Level Winnipeg Center
Tue 10:09:33 PM 49.7833 -102.9000 128° Southeast 520 598 39,000  Level Winnipeg Center
Tue 10:10:33 PM 49.7000 -102.7167 125° Southeast 520 598 39,000  Level Winnipeg Center
Tue 10:11:33 PM 49.6167 -102.5167 123° Southeast 520 598 39,000  Level Winnipeg Center
Tue 10:12:33 PM 49.5333 -102.3500 128° Southeast 520 598 39,000  Level Winnipeg Center
Tue 10:13:33 PM 49.4500 -102.1667 125° Southeast 520 598 39,000  Level Winnipeg Center
Tue 10:14:33 PM 49.3667 -102.0000 127° Southeast 520 598 39,000  Level Winnipeg Center
Tue 10:15:33 PM 49.2833 -101.8167 125° Southeast 520 598 39,000  Level Winnipeg Center
Tue 10:16:33 PM 49.2000 -101.6333 125° Southeast 510 587 39,000  Level Winnipeg Center
Tue 10:17:33 PM 49.1167 -101.4333 122° Southeast 510 587 39,000  Level Winnipeg Center
Tue 10:18:33 PM 49.0500 -101.2500 119° Southeast 520 598 39,000  Level Winnipeg Center
Tue 10:19:33 PM 48.9833 -101.0667 119° Southeast 520 598 39,000  Level Winnipeg Center
Tue 10:20:33 PM 48.9167 -100.8833 119° Southeast 520 598 39,000  Level Winnipeg Center
Tue 10:21:33 PM 48.8333 -100.7000 125° Southeast 510 587 39,000  Level Winnipeg Center
Tue 10:22:33 PM 48.7500 -100.5000 122° Southeast 510 587 39,000  Level Winnipeg Center
Tue 10:23:33 PM 48.7000 -100.3167 112° Southeast 510 587 39,000  Level Winnipeg Center
Tue 10:24:57 PM 48.6119 -100.0858 120° Southeast 513 590 39,000  Level Minneapolis Center
Tue 10:25:58 PM 48.5381 -99.9028 121° Southeast 512 589 39,000  Level Minneapolis Center
Tue 10:27:00 PM 48.4658 -99.7194 121° Southeast 510 587 39,000  Level Minneapolis Center
Tue 10:28:01 PM 48.4072 -99.5747 121° Southeast 509 586 39,000  Level Minneapolis Center
Tue 10:29:03 PM 48.3044 -99.3206 121° Southeast 509 586 39,000  Level Minneapolis Center
Tue 10:30:17 PM 48.2311 -99.1408 121° Southeast 507 583 39,000  Level Minneapolis Center
Tue 10:31:18 PM 48.1447 -98.9239 121° Southeast 508 585 39,000  Level Minneapolis Center
Tue 10:32:20 PM 48.0856 -98.7803 122° Southeast 508 585 39,000  Level Minneapolis Center
Tue 10:33:22 PM 47.9964 -98.5700 122° Southeast 504 580 39,000  Level Minneapolis Center
Tue 10:34:23 PM 47.9211 -98.3942 123° Southeast 503 579 39,000  Level Minneapolis Center
Tue 10:35:25 PM 47.8472 -98.2186 122° Southeast 502 578 39,000  Level Minneapolis Center
Tue 10:36:26 PM 47.7572 -98.0075 122° Southeast 502 578 39,000  Level Minneapolis Center
Tue 10:37:28 PM 47.6828 -97.8308 122° Southeast 499 574 39,000  Level Minneapolis Center
Tue 10:38:30 PM 47.6047 -97.6514 123° Southeast 503 579 39,000  Level Minneapolis Center
Tue 10:39:31 PM 47.5275 -97.4772 123° Southeast 503 579 39,000  Level Minneapolis Center
Tue 10:40:33 PM 47.4522 -97.3058 123° Southeast 497 572 39,000  Level Minneapolis Center
Tue 10:41:34 PM 47.3775 -97.1350 123° Southeast 497 572 39,000  Level Minneapolis Center
Tue 10:42:36 PM 47.3014 -96.9661 124° Southeast 496 571 39,000  Level Minneapolis Center
Tue 10:43:37 PM 47.2272 -96.7975 123° Southeast 491 565 39,000  Level Minneapolis Center
Tue 10:44:39 PM 47.1672 -96.6644 124° Southeast 491 565 39,000  Level Minneapolis Center
Tue 10:45:40 PM 47.0758 -96.4633 124° Southeast 492 566 39,000  Level Minneapolis Center
Tue 10:46:42 PM 46.9997 -96.2961 124° Southeast 494 568 39,000  Level Minneapolis Center
Tue 10:47:43 PM 46.9081 -96.0969 124° Southeast 493 567 39,000  Level Minneapolis Center
Tue 10:48:45 PM 46.8442 -95.9611 124° Southeast 492 566 39,000  Level Minneapolis Center
Tue 10:49:46 PM 46.7519 -95.7608 124° Southeast 495 570 39,000  Level Minneapolis Center
Tue 10:50:48 PM 46.6781 -95.6022 124° Southeast 491 565 39,000  Level Minneapolis Center
Tue 10:51:49 PM 46.6017 -95.4375 124° Southeast 483 556 39,000  Level Minneapolis Center
Tue 10:52:51 PM 46.5247 -95.2769 125° Southeast 486 559 39,000  Level Minneapolis Center
Tue 10:53:52 PM 46.4492 -95.1194 125° Southeast 480 552 39,000 -195 Level Minneapolis Center
Tue 10:54:54 PM 46.3736 -94.9611 125° Southeast 479 551 38,600 -1,171 Descending Minneapolis Center
Tue 10:55:55 PM 46.2975 -94.8025 125° Southeast 482 555 36,600 -2,852 Descending Minneapolis Center
Tue 10:56:56 PM 46.2042 -94.6108 125° Southeast 488 562 32,800 -3,561 Descending Minneapolis Center
Tue 10:57:58 PM 46.1264 -94.4514 125° Southeast 496 571 29,300 -3,707 Descending Minneapolis Center
Tue 10:58:59 PM 46.0444 -94.2853 125° Southeast 505 581 25,200 -3,456 Descending Minneapolis Center
Tue 11:00:03 PM 45.9639 -94.1225 125° Southeast 502 578 22,100 -2,952 Descending Minneapolis Center
Tue 11:01:05 PM 45.8875 -93.9669 125° Southeast 488 562 19,000 -2,976 Descending Minneapolis Center
Tue 11:02:06 PM 45.8025 -93.7894 124° Southeast 466 536 16,000 -2,878 Descending Minneapolis Center
Tue 11:03:08 PM 45.7175 -93.6789 138° Southeast 422 486 13,100 -2,195 Descending Minneapolis Center
Tue 11:04:09 PM 45.6158 -93.6236 159° South 389 448 11,500 -976 Descending Minneapolis Center
Tue 11:05:11 PM 45.5208 -93.5742 160° South 365 420 11,100 -178 Descending Minneapolis Center
Tue 11:06:24 PM 45.4244 -93.5253 160° South 367 422 11,100 -400 Level Minneapolis Center
Tue 11:07:26 PM 45.3233 -93.5056 172° South 303 349 10,200 -1,258 Descending Minneapolis Center
Tue 11:08:28 PM 45.2467 -93.4864 170° South 280 322 8,500 -1,463 Descending Minneapolis Center
Tue 11:09:29 PM 45.1728 -93.4656 169° South 272 313 7,200 -1,171 Descending Minneapolis Center
Tue 11:10:31 PM 45.0956 -93.4436 169° South 228 262 6,100 -1,317 Descending Minneapolis Center
Tue 11:11:32 PM 45.0339 -93.4253 168° South 225 259 4,500 -1,574 Descending Minneapolis Center

Login

Don't have an account? Register now (free) for customized features, flight alerts, and more!